43.2°F
Current conditions from King Hill
Updated every 5 minutes
 
  Wednesday April 23, 2014

Station Historical Data
Daily Summary for October 4, 2011 Units:  Metric    English   Both
« Previous Day
Next Day »
Daily Weekly Monthly Yearly Custom
  High: Low: Average:
Temperature: 14.1 °C 9.5 °C 11.7 °C
Dew Point: 12.9 °C 8.9 °C 11.1 °C
Humidity: 97% 91% 96%
Wind Speed: 8km/h 0km/h 2.1km/h
Wind Gust: 30.6km/h - -
Wind- - SE
Pressure: 1017.2 hPa 1015.5 hPa -
Precipitation: 0.5 mm    
Historical Graphs
 
 
Tabular Data for October 4, 2011
Time Temperature Dew Point Pressure Wind Wind Speed Wind Gust Humidity Daily Rainfall
00:00 11.4 °C 10.8 °C 1017.2 hPa Calm     96% 4.1 mm
00:05 11.4 °C 10.8 °C 1017.2 hPa Calm     96% 0 mm
00:10 11.4 °C 10.8 °C 1017.2 hPa NNW 1.6 km/h 4.8 km/h 96% 0 mm
00:15 11.6 °C 10.9 °C 1017.2 hPa Calm   4.8 km/h 96% 0 mm
00:20 11.7 °C 11.1 °C 1016.8 hPa Calm   3.2 km/h 96% 0 mm
00:25 11.7 °C 11.1 °C 1016.8 hPa Calm     96% 0 mm
00:30 11.7 °C 11.1 °C 1017.2 hPa Calm     96% 0 mm
00:40 11.6 °C 10.9 °C 1017.2 hPa Calm     96% 0.3 mm
00:45 11.6 °C 11 °C 1017.2 hPa Calm     96% 0.3 mm
00:50 11.6 °C 11 °C 1017.2 hPa Calm     96% 0.3 mm
00:55 11.7 °C 11.1 °C 1017.2 hPa Calm     96% 0.3 mm
01:00 11.7 °C 11.1 °C 1016.8 hPa Calm     96% 0.3 mm
01:05 11.7 °C 11.1 °C 1016.8 hPa Calm     96% 0.3 mm
01:10 11.7 °C 11.1 °C 1016.8 hPa Calm     96% 0.3 mm
01:15 11.6 °C 11 °C 1016.8 hPa Calm     96% 0.3 mm
01:20 11.6 °C 11 °C 1016.8 hPa Calm     96% 0.3 mm
01:30 11.6 °C 10.9 °C 1016.8 hPa Calm     96% 0.3 mm
01:35 11.6 °C 10.9 °C 1016.8 hPa Calm     96% 0.3 mm
01:45 11.6 °C 11 °C 1016.8 hPa Calm     96% 0.3 mm
01:50 11.7 °C 11.1 °C 1016.5 hPa Calm     96% 0.3 mm
01:55 11.7 °C 11.1 °C 1016.5 hPa Calm     96% 0.3 mm
02:00 11.7 °C 11.1 °C 1016.5 hPa Calm     96% 0.3 mm
02:05 11.8 °C 11.2 °C 1016.5 hPa Calm     96% 0.3 mm
02:10 11.8 °C 11.2 °C 1016.5 hPa Calm   1.6 km/h 96% 0.3 mm
02:15 11.8 °C 11.2 °C 1016.5 hPa Calm   1.6 km/h 96% 0.3 mm
02:20 11.8 °C 11.2 °C 1016.5 hPa NNW 1.6 km/h 3.2 km/h 96% 0.3 mm
02:25 11.8 °C 11.2 °C 1016.5 hPa Calm   3.2 km/h 96% 0.3 mm
02:30 11.8 °C 11.2 °C 1016.5 hPa Calm   1.6 km/h 96% 0.3 mm
02:35 11.8 °C 11.2 °C 1016.5 hPa Calm     96% 0.3 mm
02:40 11.8 °C 11.2 °C 1016.5 hPa Calm     96% 0.3 mm
02:45 11.8 °C 11.3 °C 1016.5 hPa Calm     97% 0.3 mm
02:50 11.8 °C 11.3 °C 1016.5 hPa Calm     97% 0.3 mm
02:55 11.8 °C 11.4 °C 1016.5 hPa Calm   1.6 km/h 97% 0.3 mm
03:00 11.8 °C 11.4 °C 1016.5 hPa Calm   1.6 km/h 97% 0.3 mm
03:05 11.8 °C 11.4 °C 1016.5 hPa Calm     97% 0.3 mm
03:10 11.8 °C 11.4 °C 1016.5 hPa Calm     97% 0.3 mm
03:15 11.8 °C 11.2 °C 1016.5 hPa Calm   3.2 km/h 96% 0.3 mm
03:20 11.8 °C 11.4 °C 1016.5 hPa Calm   3.2 km/h 97% 0.3 mm
03:25 11.8 °C 11.2 °C 1016.5 hPa Calm   1.6 km/h 96% 0.3 mm
03:30 11.9 °C 11.3 °C 1016.5 hPa Calm   1.6 km/h 96% 0.3 mm
03:35 11.9 °C 11.3 °C 1016.5 hPa Calm   4.8 km/h 96% 0.3 mm
03:40 11.8 °C 11.4 °C 1016.5 hPa Calm   4.8 km/h 97% 0.3 mm
03:45 11.7 °C 11.3 °C 1016.5 hPa Calm   1.6 km/h 97% 0.3 mm
03:50 11.7 °C 11.1 °C 1016.5 hPa Calm     96% 0.3 mm
03:55 11.6 °C 10.9 °C 1016.5 hPa Calm     96% 0.3 mm
04:00 11.6 °C 10.9 °C 1016.5 hPa Calm     96% 0.3 mm
04:10 11.4 °C 10.8 °C 1016.5 hPa Calm     96% 0.3 mm
04:15 11.4 °C 10.8 °C 1016.5 hPa Calm     96% 0.3 mm
04:20 11.3 °C 10.9 °C 1016.5 hPa Calm     97% 0.3 mm
04:25 11.2 °C 10.6 °C 1016.5 hPa Calm     96% 0.3 mm
04:30 11 °C 10.4 °C 1016.5 hPa Calm     96% 0.3 mm
04:35 10.8 °C 10.2 °C 1016.5 hPa Calm     96% 0.3 mm
04:40 10.7 °C 10.1 °C 1016.1 hPa Calm     96% 0.3 mm
04:45 10.4 °C 9.8 °C 1016.1 hPa Calm     96% 0.3 mm
04:50 10.2 °C 9.6 °C 1016.1 hPa Calm     96% 0.3 mm
04:55 9.9 °C 9.3 °C 1016.1 hPa Calm     96% 0.3 mm
05:00 9.8 °C 9.2 °C 1016.1 hPa Calm     96% 0.3 mm
05:05 9.8 °C 9.2 °C 1016.1 hPa Calm     96% 0.3 mm
05:10 9.7 °C 9.1 °C 1016.1 hPa Calm   3.2 km/h 96% 0.3 mm
05:15 9.6 °C 8.9 °C 1016.1 hPa Calm   3.2 km/h 96% 0.3 mm
05:20 9.5 °C 8.9 °C 1016.5 hPa Calm   6.4 km/h 96% 0.3 mm
05:25 10 °C 9.4 °C 1016.1 hPa Calm   6.4 km/h 96% 0.3 mm
05:30 10.4 °C 9.9 °C 1016.1 hPa Calm   6.4 km/h 97% 0.3 mm
05:35 10.7 °C 10.2 °C 1016.5 hPa Calm     97% 0.3 mm
05:40 10.8 °C 10.3 °C 1016.5 hPa Calm     97% 0.3 mm
05:45 10.9 °C 10.4 °C 1016.5 hPa Calm     97% 0.3 mm
05:50 11 °C 10.6 °C 1016.5 hPa Calm   1.6 km/h 97% 0.3 mm
05:55 11.1 °C 10.6 °C 1016.5 hPa Calm   1.6 km/h 97% 0.3 mm
06:00 11.1 °C 10.6 °C 1016.5 hPa Calm   3.2 km/h 97% 0.3 mm
06:05 11.1 °C 10.6 °C 1016.5 hPa Calm   3.2 km/h 97% 0.3 mm
06:10 11 °C 10.4 °C 1016.5 hPa Calm   1.6 km/h 96% 0.3 mm
06:15 10.9 °C 10.3 °C 1016.5 hPa Calm     96% 0.3 mm
06:20 10.9 °C 10.3 °C 1016.5 hPa Calm   3.2 km/h 96% 0.3 mm
06:25 10.9 °C 10.3 °C 1016.5 hPa Calm   3.2 km/h 96% 0.3 mm
06:30 10.9 °C 10.3 °C 1016.5 hPa Calm   6.4 km/h 96% 0.3 mm
06:35 10.9 °C 10.3 °C 1016.5 hPa Calm   6.4 km/h 96% 0.3 mm
06:40 10.8 °C 10.4 °C 1016.5 hPa Calm   4.8 km/h 97% 0.3 mm
06:45 10.8 °C 10.3 °C 1016.5 hPa Calm   3.2 km/h 97% 0.3 mm
06:50 10.8 °C 10.3 °C 1016.5 hPa Calm   3.2 km/h 97% 0.3 mm
06:55 10.8 °C 10.3 °C 1016.5 hPa Calm   3.2 km/h 97% 0.3 mm
07:00 10.8 °C 10.3 °C 1016.5 hPa Calm   1.6 km/h 97% 0.5 mm
07:05 10.8 °C 10.4 °C 1016.5 hPa Calm   1.6 km/h 97% 0.5 mm
07:10 10.8 °C 10.4 °C 1016.5 hPa Calm     97% 0.5 mm
07:15 10.8 °C 10.4 °C 1016.5 hPa NNW 1.6 km/h 3.2 km/h 97% 0.5 mm
07:20 10.8 °C 10.4 °C 1016.5 hPa Calm   3.2 km/h 97% 0.5 mm
07:25 10.8 °C 10.4 °C 1016.5 hPa Calm   3.2 km/h 97% 0.5 mm
07:30 10.8 °C 10.4 °C 1016.8 hPa Calm   3.2 km/h 97% 0.5 mm
07:35 10.9 °C 10.4 °C 1016.8 hPa Calm   1.6 km/h 97% 0.5 mm
07:40 10.9 °C 10.5 °C 1016.8 hPa Calm   1.6 km/h 97% 0.5 mm
07:45 11 °C 10.6 °C 1016.8 hPa Calm   1.6 km/h 97% 0.5 mm
07:50 11.1 °C 10.6 °C 1016.8 hPa Calm     97% 0.5 mm
07:55 11.1 °C 10.6 °C 1016.8 hPa Calm   3.2 km/h 97% 0.5 mm
08:00 11.1 °C 10.7 °C 1016.8 hPa Calm   3.2 km/h 97% 0.5 mm
08:05 11.1 °C 10.6 °C 1016.8 hPa Calm   3.2 km/h 97% 0.5 mm
08:10 11.1 °C 10.7 °C 1016.8 hPa Calm   3.2 km/h 97% 0.5 mm
08:15 11.2 °C 10.8 °C 1016.8 hPa Calm   3.2 km/h 97% 0.5 mm
08:20 11.3 °C 10.8 °C 1016.5 hPa Calm   3.2 km/h 97% 0.5 mm
08:25 11.3 °C 10.8 °C 1016.5 hPa Calm   3.2 km/h 97% 0.5 mm
08:30 11.3 °C 10.9 °C 1016.5 hPa Calm   1.6 km/h 97% 0.5 mm
08:35 11.4 °C 10.9 °C 1016.8 hPa Calm   3.2 km/h 97% 0.5 mm
08:40 11.5 °C 11.1 °C 1016.8 hPa Calm   3.2 km/h 97% 0.5 mm
08:45 11.6 °C 11.2 °C 1016.8 hPa Calm   3.2 km/h 97% 0.5 mm
08:50 11.7 °C 11.3 °C 1016.8 hPa Calm   3.2 km/h 97% 0.5 mm
08:55 11.7 °C 11.3 °C 1016.8 hPa Calm   4.8 km/h 97% 0.5 mm
09:00 11.7 °C 11.2 °C 1016.8 hPa Calm   4.8 km/h 97% 0.5 mm
09:05 11.7 °C 11.2 °C 1016.8 hPa Calm   4.8 km/h 97% 0.5 mm
09:10 11.7 °C 11.3 °C 1016.8 hPa Calm   4.8 km/h 97% 0.5 mm
09:15 11.7 °C 11.2 °C 1016.8 hPa Calm   4.8 km/h 97% 0.5 mm
09:20 11.6 °C 11.2 °C 1016.8 hPa NNW 1.6 km/h 6.4 km/h 97% 0.5 mm
09:25 11.5 °C 11.1 °C 1016.8 hPa NNW 1.6 km/h 6.4 km/h 97% 0.5 mm
09:35 11.3 °C 10.9 °C 1016.8 hPa Calm   6.4 km/h 97% 0.5 mm
09:40 11.3 °C 10.9 °C 1016.8 hPa Calm   3.2 km/h 97% 0.5 mm
09:45 11.3 °C 10.9 °C 1017.2 hPa NW 1.6 km/h 8 km/h 97% 0.5 mm
09:50 11.2 °C 10.8 °C 1017.2 hPa NW 3.2 km/h 8 km/h 97% 0.5 mm
09:55 11.3 °C 10.8 °C 1017.2 hPa North 1.6 km/h 8 km/h 97% 0.5 mm
10:00 11.3 °C 10.8 °C 1016.8 hPa Calm   9.7 km/h 97% 0.5 mm
10:05 11.3 °C 10.8 °C 1016.8 hPa Calm   9.7 km/h 97% 0.5 mm
10:10 11.3 °C 10.9 °C 1016.8 hPa Calm   6.4 km/h 97% 0.5 mm
10:15 11.3 °C 10.9 °C 1017.2 hPa Calm   3.2 km/h 97% 0.5 mm
10:20 11.2 °C 10.8 °C 1017.2 hPa North 1.6 km/h 9.7 km/h 97% 0.5 mm
10:25 11.1 °C 10.7 °C 1017.2 hPa NNE 1.6 km/h 9.7 km/h 97% 0.5 mm
10:30 11.2 °C 10.7 °C 1017.2 hPa NNE 1.6 km/h 8 km/h 97% 0.5 mm
10:35 11.3 °C 10.8 °C 1017.2 hPa Calm   8 km/h 97% 0.5 mm
10:40 11.4 °C 11 °C 1017.2 hPa Calm   8 km/h 97% 0.5 mm
10:45 11.6 °C 11.1 °C 1017.2 hPa Calm   3.2 km/h 97% 0.5 mm
10:50 11.7 °C 11.2 °C 1017.2 hPa Calm   1.6 km/h 97% 0.5 mm
10:55 11.7 °C 11.3 °C 1016.8 hPa Calm   6.4 km/h 97% 0.5 mm
11:00 11.7 °C 11.3 °C 1017.2 hPa Calm   6.4 km/h 97% 0.5 mm
11:05 11.8 °C 11.4 °C 1017.2 hPa Calm   3.2 km/h 97% 0.5 mm
11:10 11.8 °C 11.3 °C 1016.8 hPa NNE 1.6 km/h 6.4 km/h 97% 0.5 mm
11:15 11.7 °C 11.3 °C 1016.8 hPa Calm   6.4 km/h 97% 0.5 mm
11:20 11.7 °C 11.3 °C 1016.8 hPa NNE 1.6 km/h 4.8 km/h 97% 0.5 mm
11:25 11.7 °C 11.3 °C 1016.8 hPa Calm   4.8 km/h 97% 0.5 mm
11:35 12 °C 11.6 °C 1016.8 hPa Calm   3.2 km/h 97% 0.5 mm
11:40 11.8 °C 11.4 °C 1016.8 hPa Calm   8 km/h 97% 0.5 mm
11:45 11.8 °C 11.4 °C 1016.8 hPa Calm   8 km/h 97% 0.5 mm
11:50 11.8 °C 11.4 °C 1016.8 hPa Calm   1.6 km/h 97% 0.5 mm
11:55 12 °C 11.6 °C 1016.8 hPa Calm   3.2 km/h 97% 0.5 mm
12:00 12 °C 11.6 °C 1016.8 hPa Calm   3.2 km/h 97% 0.5 mm
12:05 12 °C 11.6 °C 1016.8 hPa Calm   3.2 km/h 97% 0.5 mm
12:10 12.1 °C 11.7 °C 1016.8 hPa NNE 1.6 km/h 4.8 km/h 97% 0.5 mm
12:15 12.1 °C 11.7 °C 1016.8 hPa Calm   4.8 km/h 97% 0.5 mm
12:20 12.1 °C 11.7 °C 1016.8 hPa Calm   1.6 km/h 97% 0.5 mm
12:30 12.1 °C 11.7 °C 1016.8 hPa NE 1.6 km/h 6.4 km/h 97% 0.5 mm
12:40 12 °C 11.6 °C 1016.8 hPa ENE 1.6 km/h 8 km/h 97% 0.5 mm
12:50 12.2 °C 11.8 °C 1016.8 hPa NE 1.6 km/h 4.8 km/h 97% 0.5 mm
12:55 12.3 °C 11.8 °C 1016.5 hPa NE 1.6 km/h 4.8 km/h 97% 0.5 mm
13:00 12.4 °C 12 °C 1016.5 hPa Calm   4.8 km/h 97% 0.5 mm
13:05 12.8 °C 12.3 °C 1016.5 hPa Calm   3.2 km/h 97% 0.5 mm
13:10 12.9 °C 12.5 °C 1016.1 hPa NE 3.2 km/h 9.7 km/h 97% 0.5 mm
13:15 13 °C 12.6 °C 1016.1 hPa Calm   9.7 km/h 97% 0.5 mm
13:20 13 °C 12.6 °C 1016.1 hPa North 1.6 km/h 14.5 km/h 97% 0.5 mm
13:25 12.8 °C 12.3 °C 1016.1 hPa NE 4.8 km/h 14.5 km/h 97% 0.5 mm
13:30 12.5 °C 12.1 °C 1016.1 hPa NNE 3.2 km/h 17.7 km/h 97% 0.5 mm
13:35 12.4 °C 12 °C 1016.1 hPa NE 1.6 km/h 17.7 km/h 97% 0.5 mm
13:40 12.5 °C 12.1 °C 1015.8 hPa Calm   14.5 km/h 97% 0.5 mm
13:45 12.6 °C 12.1 °C 1015.8 hPa Calm   9.7 km/h 97% 0.5 mm
13:50 12.9 °C 12.4 °C 1015.8 hPa Calm   6.4 km/h 97% 0.5 mm
13:55 13.1 °C 12.6 °C 1015.8 hPa Calm   6.4 km/h 97% 0.5 mm
14:00 13.3 °C 12.8 °C 1015.8 hPa NW 1.6 km/h 6.4 km/h 97% 0.5 mm
14:05 13.2 °C 12.7 °C 1015.8 hPa NW 3.2 km/h 11.3 km/h 97% 0.5 mm
14:10 13.1 °C 12.6 °C 1015.8 hPa NW 4.8 km/h 16.1 km/h 97% 0.5 mm
14:15 12.9 °C 12.4 °C 1015.8 hPa NW 6.4 km/h 16.1 km/h 97% 0.5 mm
14:20 12.9 °C 12.4 °C 1015.8 hPa NW 1.6 km/h 12.9 km/h 97% 0.5 mm
14:25 12.9 °C 12.3 °C 1015.8 hPa Calm   12.9 km/h 96% 0.5 mm
14:30 13 °C 12.4 °C 1015.8 hPa NW 1.6 km/h 11.3 km/h 96% 0.5 mm
14:35 13 °C 12.4 °C 1015.8 hPa Calm   11.3 km/h 96% 0.5 mm
14:40 13.1 °C 12.4 °C 1015.8 hPa NNW 1.6 km/h 11.3 km/h 96% 0.5 mm
14:45 13.3 °C 12.7 °C 1015.8 hPa NNW 3.2 km/h 14.5 km/h 96% 0.5 mm
14:50 13.1 °C 12.3 °C 1015.8 hPa NW 8 km/h 16.1 km/h 95% 0.5 mm
14:55 13.1 °C 12.3 °C 1015.8 hPa NNW 1.6 km/h 16.1 km/h 95% 0.5 mm
15:00 13.3 °C 12.5 °C 1015.8 hPa NNE 1.6 km/h 11.3 km/h 95% 0.5 mm
15:05 13.5 °C 12.7 °C 1015.8 hPa NW 1.6 km/h 8 km/h 95% 0.5 mm
15:10 13.4 °C 12.5 °C 1015.8 hPa Calm   9.7 km/h 94% 0.5 mm
15:15 13.6 °C 12.8 °C 1015.5 hPa Calm   9.7 km/h 95% 0.5 mm
15:20 13.6 °C 12.7 °C 1015.5 hPa NNE 1.6 km/h 9.7 km/h 94% 0.5 mm
15:25 13.6 °C 12.5 °C 1015.5 hPa Calm   11.3 km/h 93% 0.5 mm
15:30 13.8 °C 12.9 °C 1015.5 hPa Calm   11.3 km/h 94% 0.5 mm
15:35 14 °C 12.9 °C 1015.5 hPa North 1.6 km/h 9.7 km/h 93% 0.5 mm
15:40 14.1 °C 12.9 °C 1015.5 hPa Calm   9.7 km/h 93% 0.5 mm
15:45 14.1 °C 12.8 °C 1015.5 hPa Calm   9.7 km/h 92% 0.5 mm
15:50 14 °C 12.6 °C 1015.5 hPa NW 4.8 km/h 12.9 km/h 91% 0.5 mm
15:55 13.8 °C 12.5 °C 1015.5 hPa NW 3.2 km/h 16.1 km/h 92% 0.5 mm
16:00 13.6 °C 12.3 °C 1015.8 hPa Calm   16.1 km/h 92% 0.5 mm
16:05 13.4 °C 12.2 °C 1015.8 hPa NW 1.6 km/h 12.9 km/h 92% 0.5 mm
16:10 13.3 °C 12.2 °C 1015.8 hPa Calm   12.9 km/h 93% 0.5 mm
16:15 13.3 °C 12.2 °C 1015.8 hPa NW 1.6 km/h 11.3 km/h 93% 0.5 mm
16:20 13.2 °C 12.1 °C 1015.8 hPa Calm   16.1 km/h 93% 0.5 mm
16:25 13.1 °C 12 °C 1015.8 hPa NW 1.6 km/h 16.1 km/h 93% 0.5 mm
16:30 12.9 °C 11.8 °C 1015.8 hPa NNW 6.4 km/h 14.5 km/h 93% 0.5 mm
16:35 12.9 °C 11.8 °C 1015.8 hPa NNE 1.6 km/h 14.5 km/h 93% 0.5 mm
16:45 12.8 °C 11.9 °C 1015.8 hPa Calm   30.6 km/h 94% 0.5 mm
16:50 12.8 °C 11.9 °C 1015.8 hPa NNE 1.6 km/h 12.9 km/h 94% 0.5 mm
16:55 12.8 °C 11.9 °C 1015.8 hPa NNE 4.8 km/h 17.7 km/h 94% 0.5 mm
17:00 12.8 °C 11.9 °C 1015.8 hPa Calm   17.7 km/h 94% 0.5 mm
17:05 12.9 °C 11.9 °C 1015.8 hPa Calm   8 km/h 94% 0.5 mm
17:10 12.9 °C 11.9 °C 1015.8 hPa Calm   6.4 km/h 94% 0.5 mm
17:15 12.8 °C 11.9 °C 1015.8 hPa Calm   6.4 km/h 94% 0.5 mm
17:20 12.8 °C 11.9 °C 1015.8 hPa Calm   4.8 km/h 94% 0.5 mm
17:25 12.8 °C 11.9 °C 1015.8 hPa NNE 1.6 km/h 6.4 km/h 94% 0.5 mm
17:31 12.8 °C 11.8 °C 1015.8 hPa Calm   6.4 km/h 94% 0.5 mm
17:40 12.8 °C 11.8 °C 1015.8 hPa NNE 1.6 km/h 8 km/h 94% 0.5 mm
17:45 12.8 °C 11.8 °C 1015.8 hPa NE 1.6 km/h 8 km/h 94% 0.5 mm
17:50 12.8 °C 11.8 °C 1015.8 hPa Calm   6.4 km/h 94% 0.5 mm
17:55 12.7 °C 11.8 °C 1015.8 hPa Calm   4.8 km/h 94% 0.5 mm
18:00 12.7 °C 11.7 °C 1015.8 hPa Calm   8 km/h 94% 0.5 mm
18:05 12.6 °C 11.7 °C 1015.8 hPa North 1.6 km/h 8 km/h 94% 0.5 mm
18:10 12.6 °C 11.6 °C 1015.8 hPa North 1.6 km/h 9.7 km/h 94% 0.5 mm
18:15 12.5 °C 11.6 °C 1015.8 hPa NNE 1.6 km/h 9.7 km/h 94% 0.5 mm
18:20 12.4 °C 11.3 °C 1015.8 hPa Calm   8 km/h 93% 0.5 mm
18:25 12.3 °C 11.4 °C 1015.8 hPa Calm   8 km/h 94% 0.5 mm
18:30 12.3 °C 11.3 °C 1015.8 hPa Calm   6.4 km/h 94% 0.5 mm
18:35 12.2 °C 11.3 °C 1015.8 hPa Calm   6.4 km/h 94% 0.5 mm
18:40 12.2 °C 11.2 °C 1015.8 hPa Calm   11.3 km/h 94% 0.5 mm
18:45 12.2 °C 11.2 °C 1015.8 hPa NE 1.6 km/h 12.9 km/h 94% 0.5 mm
18:50 12.1 °C 11.2 °C 1015.8 hPa Calm   12.9 km/h 94% 0.5 mm
18:55 12.1 °C 11.2 °C 1015.8 hPa Calm   11.3 km/h 94% 0.5 mm
19:00 12.1 °C 11.1 °C 1015.8 hPa NNE 1.6 km/h 14.5 km/h 94% 0.5 mm
19:05 12.1 °C 11.1 °C 1015.8 hPa NNE 1.6 km/h 14.5 km/h 94% 0.5 mm
19:10 12.1 °C 11.1 °C 1015.8 hPa Calm   9.7 km/h 94% 0.5 mm
19:15 12 °C 11.1 °C 1015.8 hPa NNW 1.6 km/h 8 km/h 94% 0.5 mm
19:20 12 °C 11.1 °C 1015.8 hPa Calm   8 km/h 94% 0.5 mm
19:25 11.9 °C 11 °C 1015.8 hPa Calm   4.8 km/h 94% 0.5 mm
19:30 11.9 °C 11 °C 1015.8 hPa North 1.6 km/h 8 km/h 94% 0.5 mm
19:35 11.9 °C 10.9 °C 1015.8 hPa Calm   9.7 km/h 94% 0.5 mm
19:40 11.8 °C 11.1 °C 1015.8 hPa NE 1.6 km/h 9.7 km/h 95% 0.5 mm
19:45 11.8 °C 11 °C 1015.8 hPa Calm   9.7 km/h 95% 0.5 mm
19:50 11.8 °C 11 °C 1015.8 hPa NNE 1.6 km/h 11.3 km/h 95% 0.5 mm
19:55 11.8 °C 11 °C 1015.8 hPa NNW 1.6 km/h 17.7 km/h 95% 0.5 mm
20:00 11.7 °C 10.8 °C 1015.8 hPa NNE 1.6 km/h 17.7 km/h 94% 0.5 mm
20:05 11.7 °C 10.7 °C 1015.8 hPa Calm   16.1 km/h 94% 0.5 mm
20:10 11.7 °C 10.7 °C 1015.8 hPa NNW 1.6 km/h 9.7 km/h 94% 0.5 mm
20:15 11.7 °C 10.7 °C 1015.8 hPa Calm   14.5 km/h 94% 0.5 mm
20:20 11.6 °C 10.7 °C 1015.8 hPa Calm   14.5 km/h 94% 0.5 mm
20:25 11.6 °C 10.7 °C 1015.8 hPa North 1.6 km/h 11.3 km/h 94% 0.5 mm
20:30 11.6 °C 10.6 °C 1015.8 hPa Calm   11.3 km/h 94% 0.5 mm
20:35 11.5 °C 10.6 °C 1015.8 hPa North 1.6 km/h 16.1 km/h 94% 0.5 mm
20:40 11.4 °C 10.5 °C 1015.8 hPa NNE 1.6 km/h 16.1 km/h 94% 0.5 mm
20:45 11.4 °C 10.4 °C 1015.8 hPa NNE 1.6 km/h 16.1 km/h 94% 0.5 mm
20:50 11.4 °C 10.4 °C 1015.8 hPa NE 1.6 km/h 9.7 km/h 94% 0.5 mm
20:55 11.3 °C 10.4 °C 1015.8 hPa North 1.6 km/h 12.9 km/h 94% 0.5 mm
21:00 11.3 °C 10.4 °C 1015.8 hPa Calm   16.1 km/h 94% 0.5 mm
21:05 11.3 °C 10.4 °C 1015.8 hPa North 1.6 km/h 16.1 km/h 94% 0.5 mm
21:10 11.3 °C 10.3 °C 1015.8 hPa NE 1.6 km/h 14.5 km/h 94% 0.5 mm
21:15 11.2 °C 10.3 °C 1015.8 hPa NNE 3.2 km/h 12.9 km/h 94% 0.5 mm
21:20 11.2 °C 10.3 °C 1015.8 hPa Calm   9.7 km/h 94% 0.5 mm
21:25 11.2 °C 10.2 °C 1015.8 hPa NNE 1.6 km/h 11.3 km/h 94% 0.5 mm
21:30 11.2 °C 10.2 °C 1015.8 hPa Calm   11.3 km/h 94% 0.5 mm
21:35 11.1 °C 10.2 °C 1015.8 hPa NNW 1.6 km/h 9.7 km/h 94% 0.5 mm
21:40 11.1 °C 10.1 °C 1015.8 hPa Calm   9.7 km/h 94% 0.5 mm
21:45 11.1 °C 10.1 °C 1016.1 hPa NNE 1.6 km/h 8 km/h 94% 0.5 mm
21:50 11 °C 10.1 °C 1016.1 hPa Calm   11.3 km/h 94% 0.5 mm
21:55 10.9 °C 10 °C 1016.1 hPa North 3.2 km/h 14.5 km/h 94% 0.5 mm
22:00 10.9 °C 9.9 °C 1016.1 hPa North 3.2 km/h 14.5 km/h 94% 0.5 mm
22:05 10.8 °C 9.9 °C 1016.1 hPa North 1.6 km/h 12.9 km/h 94% 0.5 mm
22:15 10.8 °C 9.8 °C 1016.1 hPa Calm   8 km/h 94% 0.5 mm
22:20 10.8 °C 9.8 °C 1016.1 hPa Calm   9.7 km/h 94% 0.5 mm
22:25 10.7 °C 9.8 °C 1016.1 hPa North 1.6 km/h 9.7 km/h 94% 0.5 mm
22:30 10.7 °C 9.8 °C 1016.1 hPa Calm   8 km/h 94% 0.5 mm
22:35 10.7 °C 9.8 °C 1016.1 hPa Calm   9.7 km/h 94% 0.5 mm
22:40 10.7 °C 9.7 °C 1016.1 hPa Calm   9.7 km/h 94% 0.5 mm
22:45 10.7 °C 9.7 °C 1016.1 hPa North 1.6 km/h 8 km/h 94% 0.5 mm
22:50 10.6 °C 9.7 °C 1016.1 hPa Calm   8 km/h 94% 0.5 mm
22:55 10.6 °C 9.6 °C 1016.1 hPa NNE 1.6 km/h 9.7 km/h 94% 0.5 mm
23:00 10.5 °C 9.6 °C 1016.1 hPa Calm   9.7 km/h 94% 0.5 mm
23:05 10.4 °C 9.5 °C 1016.1 hPa Calm   8 km/h 94% 0.5 mm
23:10 10.4 °C 9.5 °C 1016.1 hPa NNE 3.2 km/h 9.7 km/h 94% 0.5 mm
23:15 10.4 °C 9.4 °C 1016.1 hPa NNE 1.6 km/h 9.7 km/h 94% 0.5 mm
23:20 10.4 °C 9.4 °C 1016.1 hPa Calm   9.7 km/h 94% 0.5 mm
23:25 10.3 °C 9.4 °C 1016.1 hPa Calm   6.4 km/h 94% 0.5 mm
23:30 10.3 °C 9.4 °C 1016.1 hPa NNE 3.2 km/h 9.7 km/h 94% 0.5 mm
23:35 10.3 °C 9.3 °C 1016.1 hPa Calm   9.7 km/h 94% 0.5 mm
23:40 10.3 °C 9.3 °C 1016.1 hPa NNE 1.6 km/h 4.8 km/h 94% 0.5 mm
23:45 10.3 °C 9.3 °C 1016.1 hPa Calm   4.8 km/h 94% 0.5 mm
23:50 10.3 °C 9.3 °C 1016.1 hPa Calm   4.8 km/h 94% 0.5 mm
23:55 10.2 °C 9.3 °C 1016.5 hPa NNE 1.6 km/h 6.4 km/h 94% 0.5 mm
Westford Weather
Compliments of Weather Underground

 
 
Current Radar Loop:

Copyright © WestfordWeather.net 2007-2014. All rights reserved.